Aviation Digital Data Service (ADDS)

Output produced by METARs form (0538 UTC 14 December 2018)
found at http://www.aviationweather.gov/metar/data/
 
KPOU 140453Z AUTO 04003KT 9SM OVC014 M01/M04 A3050 RMK AO2 SLP329 T10111039 410061039
KPOU 140522Z 1406/1506 VRB03KT 5SM BR SCT008 OVC014 
     TEMPO 1406/1408 6SM BR 
     FM141200 VRB02KT 3SM -DZ BR SCT008 OVC012 
     FM142000 14004KT 6SM BR VCSH SCT015 OVC025 WS020/21035KT